sensor_id;sensor_type;location;lat;lon;timestamp;P1;durP1;ratioP1;P2;durP2;ratioP2
16522;SDS011;19889;52.546;13.348;2023-07-28T00:00:32;1.40;;;1.30;;
16522;SDS011;19889;52.546;13.348;2023-07-28T00:03:00;1.08;;;0.98;;
16522;SDS011;19889;52.546;13.348;2023-07-28T00:05:27;1.85;;;1.17;;
16522;SDS011;19889;52.546;13.348;2023-07-28T00:07:54;1.13;;;1.02;;
16522;SDS011;19889;52.546;13.348;2023-07-28T00:10:22;1.08;;;0.80;;
16522;SDS011;19889;52.546;13.348;2023-07-28T00:12:50;1.08;;;0.98;;
16522;SDS011;19889;52.546;13.348;2023-07-28T00:15:18;0.93;;;0.82;;
16522;SDS011;19889;52.546;13.348;2023-07-28T00:17:45;1.15;;;0.95;;
16522;SDS011;19889;52.546;13.348;2023-07-28T00:20:12;1.40;;;1.10;;
16522;SDS011;19889;52.546;13.348;2023-07-28T00:22:39;1.05;;;0.98;;
16522;SDS011;19889;52.546;13.348;2023-07-28T00:25:07;1.13;;;1.02;;
16522;SDS011;19889;52.546;13.348;2023-07-28T00:28:24;1.00;;;0.90;;
16522;SDS011;19889;52.546;13.348;2023-07-28T00:30:43;3.47;;;2.50;;
16522;SDS011;19889;52.546;13.348;2023-07-28T00:33:10;2.20;;;2.00;;
16522;SDS011;19889;52.546;13.348;2023-07-28T00:35:37;1.85;;;1.50;;
16522;SDS011;19889;52.546;13.348;2023-07-28T00:38:04;2.08;;;1.60;;
16522;SDS011;19889;52.546;13.348;2023-07-28T00:40:32;2.13;;;1.52;;
16522;SDS011;19889;52.546;13.348;2023-07-28T00:42:59;1.60;;;1.50;;
16522;SDS011;19889;52.546;13.348;2023-07-28T00:45:28;2.25;;;2.05;;
16522;SDS011;19889;52.546;13.348;2023-07-28T00:47:57;2.15;;;2.00;;
16522;SDS011;19889;52.546;13.348;2023-07-28T00:50:24;2.00;;;1.85;;
16522;SDS011;19889;52.546;13.348;2023-07-28T00:52:53;1.70;;;1.60;;
16522;SDS011;19889;52.546;13.348;2023-07-28T00:55:23;1.90;;;1.70;;
16522;SDS011;19889;52.546;13.348;2023-07-28T00:57:50;2.38;;;1.40;;
16522;SDS011;19889;52.546;13.348;2023-07-28T01:00:17;3.95;;;1.67;;
16522;SDS011;19889;52.546;13.348;2023-07-28T01:02:46;1.55;;;1.40;;
16522;SDS011;19889;52.546;13.348;2023-07-28T01:05:13;1.90;;;1.80;;
16522;SDS011;19889;52.546;13.348;2023-07-28T01:07:42;3.30;;;1.67;;
16522;SDS011;19889;52.546;13.348;2023-07-28T01:10:15;4.78;;;1.60;;
16522;SDS011;19889;52.546;13.348;2023-07-28T01:12:44;2.50;;;1.85;;
16522;SDS011;19889;52.546;13.348;2023-07-28T01:15:11;1.85;;;1.65;;
16522;SDS011;19889;52.546;13.348;2023-07-28T01:17:40;1.70;;;1.40;;
16522;SDS011;19889;52.546;13.348;2023-07-28T01:20:09;2.58;;;1.38;;
16522;SDS011;19889;52.546;13.348;2023-07-28T01:22:46;1.40;;;1.30;;
16522;SDS011;19889;52.546;13.348;2023-07-28T01:25:18;1.20;;;1.20;;
16522;SDS011;19889;52.546;13.348;2023-07-28T01:27:54;1.48;;;1.38;;
16522;SDS011;19889;52.546;13.348;2023-07-28T01:30:23;1.27;;;1.17;;
16522;SDS011;19889;52.546;13.348;2023-07-28T01:32:53;5.72;;;1.58;;
16522;SDS011;19889;52.546;13.348;2023-07-28T01:35:21;4.40;;;2.05;;
16522;SDS011;19889;52.546;13.348;2023-07-28T01:37:48;2.33;;;1.90;;
16522;SDS011;19889;52.546;13.348;2023-07-28T01:40:16;7.05;;;2.50;;
16522;SDS011;19889;52.546;13.348;2023-07-28T01:42:43;2.83;;;1.73;;
16522;SDS011;19889;52.546;13.348;2023-07-28T01:45:12;4.63;;;1.77;;
16522;SDS011;19889;52.546;13.348;2023-07-28T01:47:39;1.83;;;1.55;;
16522;SDS011;19889;52.546;13.348;2023-07-28T01:50:07;1.77;;;1.55;;
16522;SDS011;19889;52.546;13.348;2023-07-28T01:52:34;4.13;;;2.55;;
16522;SDS011;19889;52.546;13.348;2023-07-28T01:55:01;6.13;;;3.47;;
16522;SDS011;19889;52.546;13.348;2023-07-28T01:57:32;7.85;;;5.72;;
16522;SDS011;19889;52.546;13.348;2023-07-28T01:59:59;8.38;;;5.72;;
16522;SDS011;19889;52.546;13.348;2023-07-28T02:02:40;6.32;;;4.82;;
16522;SDS011;19889;52.546;13.348;2023-07-28T02:05:07;5.45;;;3.90;;
16522;SDS011;19889;52.546;13.348;2023-07-28T02:07:35;3.70;;;3.40;;
16522;SDS011;19889;52.546;13.348;2023-07-28T02:10:02;3.47;;;3.05;;
16522;SDS011;19889;52.546;13.348;2023-07-28T02:12:30;3.97;;;2.35;;
16522;SDS011;19889;52.546;13.348;2023-07-28T02:14:58;3.03;;;2.70;;
16522;SDS011;19889;52.546;13.348;2023-07-28T02:17:26;4.05;;;2.60;;
16522;SDS011;19889;52.546;13.348;2023-07-28T02:19:54;4.78;;;2.63;;
16522;SDS011;19889;52.546;13.348;2023-07-28T02:22:22;2.30;;;2.10;;
16522;SDS011;19889;52.546;13.348;2023-07-28T02:24:49;3.20;;;2.55;;
16522;SDS011;19889;52.546;13.348;2023-07-28T02:27:50;2.70;;;2.40;;
16522;SDS011;19889;52.546;13.348;2023-07-28T02:30:18;3.00;;;2.70;;
16522;SDS011;19889;52.546;13.348;2023-07-28T02:32:45;3.72;;;2.67;;
16522;SDS011;19889;52.546;13.348;2023-07-28T02:35:13;2.70;;;2.50;;
16522;SDS011;19889;52.546;13.348;2023-07-28T02:37:40;4.57;;;3.08;;
16522;SDS011;19889;52.546;13.348;2023-07-28T02:40:08;4.68;;;4.18;;
16522;SDS011;19889;52.546;13.348;2023-07-28T02:42:35;7.07;;;4.28;;
16522;SDS011;19889;52.546;13.348;2023-07-28T02:45:02;7.47;;;3.67;;
16522;SDS011;19889;52.546;13.348;2023-07-28T02:47:29;4.90;;;3.72;;
16522;SDS011;19889;52.546;13.348;2023-07-28T02:49:57;5.80;;;4.20;;
16522;SDS011;19889;52.546;13.348;2023-07-28T02:52:27;6.97;;;4.30;;
16522;SDS011;19889;52.546;13.348;2023-07-28T02:54:55;6.70;;;4.68;;
16522;SDS011;19889;52.546;13.348;2023-07-28T02:57:23;4.95;;;4.28;;
16522;SDS011;19889;52.546;13.348;2023-07-28T02:59:50;6.13;;;4.35;;
16522;SDS011;19889;52.546;13.348;2023-07-28T03:02:34;4.97;;;3.88;;
16522;SDS011;19889;52.546;13.348;2023-07-28T03:05:02;5.15;;;4.32;;
16522;SDS011;19889;52.546;13.348;2023-07-28T03:07:49;7.93;;;4.82;;
16522;SDS011;19889;52.546;13.348;2023-07-28T03:10:16;5.60;;;4.55;;
16522;SDS011;19889;52.546;13.348;2023-07-28T03:12:44;4.72;;;3.90;;
16522;SDS011;19889;52.546;13.348;2023-07-28T03:15:11;4.53;;;3.75;;
16522;SDS011;19889;52.546;13.348;2023-07-28T03:17:38;4.43;;;3.72;;
16522;SDS011;19889;52.546;13.348;2023-07-28T03:20:06;4.65;;;3.78;;
16522;SDS011;19889;52.546;13.348;2023-07-28T03:22:34;4.18;;;3.60;;
16522;SDS011;19889;52.546;13.348;2023-07-28T03:25:03;5.50;;;3.22;;
16522;SDS011;19889;52.546;13.348;2023-07-28T03:27:30;4.75;;;4.05;;
16522;SDS011;19889;52.546;13.348;2023-07-28T03:29:57;4.25;;;3.85;;
16522;SDS011;19889;52.546;13.348;2023-07-28T03:32:24;3.78;;;3.47;;
16522;SDS011;19889;52.546;13.348;2023-07-28T03:34:52;4.32;;;3.58;;
16522;SDS011;19889;52.546;13.348;2023-07-28T03:37:19;5.65;;;4.00;;
16522;SDS011;19889;52.546;13.348;2023-07-28T03:39:47;4.32;;;3.75;;
16522;SDS011;19889;52.546;13.348;2023-07-28T03:42:15;5.97;;;4.15;;
16522;SDS011;19889;52.546;13.348;2023-07-28T03:44:43;4.28;;;3.67;;
16522;SDS011;19889;52.546;13.348;2023-07-28T03:47:10;4.05;;;3.65;;
16522;SDS011;19889;52.546;13.348;2023-07-28T03:49:37;4.38;;;3.78;;
16522;SDS011;19889;52.546;13.348;2023-07-28T03:52:05;3.45;;;3.15;;
16522;SDS011;19889;52.546;13.348;2023-07-28T03:54:33;4.45;;;3.95;;
16522;SDS011;19889;52.546;13.348;2023-07-28T03:57:00;5.00;;;4.30;;
16522;SDS011;19889;52.546;13.348;2023-07-28T03:59:29;4.55;;;3.97;;
16522;SDS011;19889;52.546;13.348;2023-07-28T04:01:56;5.32;;;4.38;;
16522;SDS011;19889;52.546;13.348;2023-07-28T04:04:24;4.93;;;3.97;;
16522;SDS011;19889;52.546;13.348;2023-07-28T04:06:51;6.63;;;4.60;;
16522;SDS011;19889;52.546;13.348;2023-07-28T04:09:19;4.57;;;4.10;;
16522;SDS011;19889;52.546;13.348;2023-07-28T04:11:46;5.93;;;4.68;;
16522;SDS011;19889;52.546;13.348;2023-07-28T04:14:43;4.22;;;3.83;;
16522;SDS011;19889;52.546;13.348;2023-07-28T04:17:10;4.60;;;4.20;;
16522;SDS011;19889;52.546;13.348;2023-07-28T04:19:37;4.60;;;4.15;;
16522;SDS011;19889;52.546;13.348;2023-07-28T04:22:05;5.03;;;3.85;;
16522;SDS011;19889;52.546;13.348;2023-07-28T04:24:33;7.35;;;5.07;;
16522;SDS011;19889;52.546;13.348;2023-07-28T04:27:01;6.18;;;4.55;;
16522;SDS011;19889;52.546;13.348;2023-07-28T04:29:28;5.88;;;4.57;;
16522;SDS011;19889;52.546;13.348;2023-07-28T04:31:57;4.40;;;4.00;;
16522;SDS011;19889;52.546;13.348;2023-07-28T04:34:32;4.97;;;3.80;;
16522;SDS011;19889;52.546;13.348;2023-07-28T04:37:12;4.40;;;4.00;;
16522;SDS011;19889;52.546;13.348;2023-07-28T04:39:48;5.45;;;4.28;;
16522;SDS011;19889;52.546;13.348;2023-07-28T04:42:16;4.43;;;4.03;;
16522;SDS011;19889;52.546;13.348;2023-07-28T04:44:45;4.75;;;4.35;;
16522;SDS011;19889;52.546;13.348;2023-07-28T04:47:14;4.80;;;4.28;;
16522;SDS011;19889;52.546;13.348;2023-07-28T04:49:42;4.82;;;4.32;;
16522;SDS011;19889;52.546;13.348;2023-07-28T04:52:09;7.07;;;4.72;;
16522;SDS011;19889;52.546;13.348;2023-07-28T04:55:15;4.43;;;4.03;;
16522;SDS011;19889;52.546;13.348;2023-07-28T04:57:43;6.68;;;4.93;;
16522;SDS011;19889;52.546;13.348;2023-07-28T05:00:11;5.15;;;4.72;;
16522;SDS011;19889;52.546;13.348;2023-07-28T05:02:40;6.80;;;5.10;;
16522;SDS011;19889;52.546;13.348;2023-07-28T05:05:07;4.53;;;4.13;;
16522;SDS011;19889;52.546;13.348;2023-07-28T05:07:34;5.97;;;4.70;;
16522;SDS011;19889;52.546;13.348;2023-07-28T05:10:03;5.07;;;4.57;;
16522;SDS011;19889;52.546;13.348;2023-07-28T05:12:31;7.85;;;4.70;;
16522;SDS011;19889;52.546;13.348;2023-07-28T05:14:58;5.25;;;4.55;;
16522;SDS011;19889;52.546;13.348;2023-07-28T05:17:26;6.72;;;4.72;;
16522;SDS011;19889;52.546;13.348;2023-07-28T05:20:14;5.07;;;4.63;;
16522;SDS011;19889;52.546;13.348;2023-07-28T05:22:49;6.30;;;4.93;;
16522;SDS011;19889;52.546;13.348;2023-07-28T05:25:17;6.45;;;5.45;;
16522;SDS011;19889;52.546;13.348;2023-07-28T05:27:44;5.57;;;5.07;;
16522;SDS011;19889;52.546;13.348;2023-07-28T05:30:11;7.68;;;5.10;;
16522;SDS011;19889;52.546;13.348;2023-07-28T05:32:38;5.38;;;4.88;;
16522;SDS011;19889;52.546;13.348;2023-07-28T05:35:21;5.15;;;4.43;;
16522;SDS011;19889;52.546;13.348;2023-07-28T05:37:48;4.57;;;3.95;;
16522;SDS011;19889;52.546;13.348;2023-07-28T05:40:15;4.72;;;4.32;;
16522;SDS011;19889;52.546;13.348;2023-07-28T05:42:43;4.07;;;3.70;;
16522;SDS011;19889;52.546;13.348;2023-07-28T05:45:10;5.20;;;4.70;;
16522;SDS011;19889;52.546;13.348;2023-07-28T05:47:38;5.93;;;4.45;;
16522;SDS011;19889;52.546;13.348;2023-07-28T05:50:05;4.63;;;4.22;;
16522;SDS011;19889;52.546;13.348;2023-07-28T05:52:34;5.00;;;4.43;;
16522;SDS011;19889;52.546;13.348;2023-07-28T05:55:01;4.50;;;3.80;;
16522;SDS011;19889;52.546;13.348;2023-07-28T05:57:28;5.20;;;4.70;;
16522;SDS011;19889;52.546;13.348;2023-07-28T05:59:58;5.30;;;4.18;;
16522;SDS011;19889;52.546;13.348;2023-07-28T06:02:25;4.78;;;4.13;;
16522;SDS011;19889;52.546;13.348;2023-07-28T06:04:54;6.55;;;4.68;;
16522;SDS011;19889;52.546;13.348;2023-07-28T06:07:22;7.18;;;4.30;;
16522;SDS011;19889;52.546;13.348;2023-07-28T06:09:50;5.93;;;4.55;;
16522;SDS011;19889;52.546;13.348;2023-07-28T06:12:17;6.97;;;4.95;;
16522;SDS011;19889;52.546;13.348;2023-07-28T06:14:44;4.90;;;3.75;;
16522;SDS011;19889;52.546;13.348;2023-07-28T06:17:12;4.38;;;4.00;;
16522;SDS011;19889;52.546;13.348;2023-07-28T06:19:40;5.20;;;4.22;;
16522;SDS011;19889;52.546;13.348;2023-07-28T06:22:07;6.32;;;4.82;;
16522;SDS011;19889;52.546;13.348;2023-07-28T06:24:40;5.32;;;4.82;;
16522;SDS011;19889;52.546;13.348;2023-07-28T06:27:09;7.20;;;4.68;;
16522;SDS011;19889;52.546;13.348;2023-07-28T06:29:38;5.05;;;4.38;;
16522;SDS011;19889;52.546;13.348;2023-07-28T06:32:06;4.63;;;4.05;;
16522;SDS011;19889;52.546;13.348;2023-07-28T06:34:34;4.85;;;4.38;;
16522;SDS011;19889;52.546;13.348;2023-07-28T06:37:02;5.50;;;4.05;;
16522;SDS011;19889;52.546;13.348;2023-07-28T06:39:29;4.93;;;3.83;;
16522;SDS011;19889;52.546;13.348;2023-07-28T06:41:56;10.93;;;9.15;;
16522;SDS011;19889;52.546;13.348;2023-07-28T06:44:26;5.32;;;4.82;;
16522;SDS011;19889;52.546;13.348;2023-07-28T06:46:54;5.45;;;4.28;;
16522;SDS011;19889;52.546;13.348;2023-07-28T06:49:21;5.63;;;4.22;;
16522;SDS011;19889;52.546;13.348;2023-07-28T06:51:48;6.93;;;4.38;;
16522;SDS011;19889;52.546;13.348;2023-07-28T06:54:17;4.70;;;3.80;;
16522;SDS011;19889;52.546;13.348;2023-07-28T06:56:44;5.53;;;4.25;;
16522;SDS011;19889;52.546;13.348;2023-07-28T06:59:11;5.43;;;5.03;;
16522;SDS011;19889;52.546;13.348;2023-07-28T07:01:40;5.20;;;4.25;;
16522;SDS011;19889;52.546;13.348;2023-07-28T07:04:07;7.30;;;4.13;;
16522;SDS011;19889;52.546;13.348;2023-07-28T07:06:35;4.00;;;3.60;;
16522;SDS011;19889;52.546;13.348;2023-07-28T07:09:09;5.03;;;4.45;;
16522;SDS011;19889;52.546;13.348;2023-07-28T07:11:42;5.03;;;3.80;;
16522;SDS011;19889;52.546;13.348;2023-07-28T07:14:09;3.45;;;3.15;;
16522;SDS011;19889;52.546;13.348;2023-07-28T07:16:37;3.33;;;3.03;;
16522;SDS011;19889;52.546;13.348;2023-07-28T07:19:05;5.90;;;3.83;;
16522;SDS011;19889;52.546;13.348;2023-07-28T07:21:34;3.22;;;2.92;;
16522;SDS011;19889;52.546;13.348;2023-07-28T07:24:18;4.50;;;3.33;;
16522;SDS011;19889;52.546;13.348;2023-07-28T07:26:46;4.20;;;3.40;;
16522;SDS011;19889;52.546;13.348;2023-07-28T07:29:13;2.80;;;2.60;;
16522;SDS011;19889;52.546;13.348;2023-07-28T07:31:40;4.30;;;3.90;;
16522;SDS011;19889;52.546;13.348;2023-07-28T07:34:09;6.43;;;3.08;;
16522;SDS011;19889;52.546;13.348;2023-07-28T07:36:36;3.78;;;2.97;;
16522;SDS011;19889;52.546;13.348;2023-07-28T07:39:19;3.75;;;3.40;;
16522;SDS011;19889;52.546;13.348;2023-07-28T07:42:06;4.10;;;3.70;;
16522;SDS011;19889;52.546;13.348;2023-07-28T07:44:35;3.53;;;2.70;;
16522;SDS011;19889;52.546;13.348;2023-07-28T07:47:11;4.15;;;3.22;;
16522;SDS011;19889;52.546;13.348;2023-07-28T07:49:40;4.10;;;2.70;;
16522;SDS011;19889;52.546;13.348;2023-07-28T07:52:19;3.25;;;2.85;;
16522;SDS011;19889;52.546;13.348;2023-07-28T07:54:47;4.45;;;3.20;;
16522;SDS011;19889;52.546;13.348;2023-07-28T07:57:14;2.75;;;2.45;;
16522;SDS011;19889;52.546;13.348;2023-07-28T07:59:44;2.40;;;2.20;;
16522;SDS011;19889;52.546;13.348;2023-07-28T08:02:11;4.57;;;4.07;;
16522;SDS011;19889;52.546;13.348;2023-07-28T08:04:38;3.28;;;2.75;;
16522;SDS011;19889;52.546;13.348;2023-07-28T08:07:07;2.53;;;2.33;;
16522;SDS011;19889;52.546;13.348;2023-07-28T08:09:34;2.45;;;1.95;;
16522;SDS011;19889;52.546;13.348;2023-07-28T08:12:02;2.08;;;1.98;;
16522;SDS011;19889;52.546;13.348;2023-07-28T08:14:30;3.90;;;3.10;;
16522;SDS011;19889;52.546;13.348;2023-07-28T08:16:57;2.60;;;2.40;;
16522;SDS011;19889;52.546;13.348;2023-07-28T08:19:24;3.58;;;3.25;;
16522;SDS011;19889;52.546;13.348;2023-07-28T08:21:53;2.70;;;2.45;;
16522;SDS011;19889;52.546;13.348;2023-07-28T08:24:20;2.00;;;1.70;;
16522;SDS011;19889;52.546;13.348;2023-07-28T08:26:47;1.85;;;1.70;;
16522;SDS011;19889;52.546;13.348;2023-07-28T08:29:14;1.70;;;1.60;;
16522;SDS011;19889;52.546;13.348;2023-07-28T08:31:41;2.25;;;2.00;;
16522;SDS011;19889;52.546;13.348;2023-07-28T08:34:09;3.65;;;2.13;;
16522;SDS011;19889;52.546;13.348;2023-07-28T08:36:36;3.70;;;2.00;;
16522;SDS011;19889;52.546;13.348;2023-07-28T08:39:04;2.30;;;2.10;;
16522;SDS011;19889;52.546;13.348;2023-07-28T08:41:32;2.17;;;1.70;;
16522;SDS011;19889;52.546;13.348;2023-07-28T08:44:29;2.35;;;2.15;;
16522;SDS011;19889;52.546;13.348;2023-07-28T08:46:58;3.45;;;2.60;;
16522;SDS011;19889;52.546;13.348;2023-07-28T08:49:26;2.15;;;2.00;;
16522;SDS011;19889;52.546;13.348;2023-07-28T08:51:57;2.45;;;2.20;;
16522;SDS011;19889;52.546;13.348;2023-07-28T08:54:27;3.88;;;2.38;;
16522;SDS011;19889;52.546;13.348;2023-07-28T08:56:54;2.40;;;2.20;;
16522;SDS011;19889;52.546;13.348;2023-07-28T08:59:37;2.45;;;2.25;;
16522;SDS011;19889;52.546;13.348;2023-07-28T09:02:17;3.63;;;2.30;;
16522;SDS011;19889;52.546;13.348;2023-07-28T09:05:02;3.70;;;2.45;;
16522;SDS011;19889;52.546;13.348;2023-07-28T09:07:33;2.50;;;2.05;;
16522;SDS011;19889;52.546;13.348;2023-07-28T09:10:03;2.60;;;2.40;;
16522;SDS011;19889;52.546;13.348;2023-07-28T09:12:31;2.70;;;2.50;;
16522;SDS011;19889;52.546;13.348;2023-07-28T09:14:58;2.40;;;2.20;;
16522;SDS011;19889;52.546;13.348;2023-07-28T09:17:26;2.70;;;1.90;;
16522;SDS011;19889;52.546;13.348;2023-07-28T09:19:53;5.03;;;4.13;;
16522;SDS011;19889;52.546;13.348;2023-07-28T09:22:21;3.88;;;3.47;;
16522;SDS011;19889;52.546;13.348;2023-07-28T09:24:50;2.83;;;2.20;;
16522;SDS011;19889;52.546;13.348;2023-07-28T09:27:23;2.25;;;2.05;;
16522;SDS011;19889;52.546;13.348;2023-07-28T09:29:52;5.60;;;4.55;;
16522;SDS011;19889;52.546;13.348;2023-07-28T09:32:26;5.57;;;3.67;;
16522;SDS011;19889;52.546;13.348;2023-07-28T09:35:06;2.80;;;2.58;;
16522;SDS011;19889;52.546;13.348;2023-07-28T09:37:36;4.45;;;3.55;;
16522;SDS011;19889;52.546;13.348;2023-07-28T09:40:04;3.03;;;2.58;;
16522;SDS011;19889;52.546;13.348;2023-07-28T09:42:38;4.20;;;3.78;;
16522;SDS011;19889;52.546;13.348;2023-07-28T09:45:05;3.15;;;2.92;;
16522;SDS011;19889;52.546;13.348;2023-07-28T09:47:37;7.25;;;5.95;;
16522;SDS011;19889;52.546;13.348;2023-07-28T09:50:10;3.97;;;3.03;;
16522;SDS011;19889;52.546;13.348;2023-07-28T09:52:42;2.95;;;2.30;;
16522;SDS011;19889;52.546;13.348;2023-07-28T09:55:10;5.25;;;4.68;;
16522;SDS011;19889;52.546;13.348;2023-07-28T09:57:41;3.25;;;2.95;;
16522;SDS011;19889;52.546;13.348;2023-07-28T10:00:13;9.18;;;7.00;;
16522;SDS011;19889;52.546;13.348;2023-07-28T10:02:44;5.38;;;4.70;;
16522;SDS011;19889;52.546;13.348;2023-07-28T10:05:19;3.78;;;3.35;;
16522;SDS011;19889;52.546;13.348;2023-07-28T10:07:48;3.95;;;3.53;;
16522;SDS011;19889;52.546;13.348;2023-07-28T10:10:15;2.88;;;2.67;;
16522;SDS011;19889;52.546;13.348;2023-07-28T10:12:47;3.80;;;3.40;;
16522;SDS011;19889;52.546;13.348;2023-07-28T10:15:15;2.92;;;2.63;;
16522;SDS011;19889;52.546;13.348;2023-07-28T10:17:44;1.88;;;1.77;;
16522;SDS011;19889;52.546;13.348;2023-07-28T10:20:28;2.03;;;1.90;;
16522;SDS011;19889;52.546;13.348;2023-07-28T10:23:03;3.10;;;2.60;;
16522;SDS011;19889;52.546;13.348;2023-07-28T10:25:34;2.40;;;2.20;;
16522;SDS011;19889;52.546;13.348;2023-07-28T10:28:05;2.38;;;2.10;;
16522;SDS011;19889;52.546;13.348;2023-07-28T10:30:37;2.10;;;2.00;;
16522;SDS011;19889;52.546;13.348;2023-07-28T10:33:05;2.42;;;2.22;;
16522;SDS011;19889;52.546;13.348;2023-07-28T10:35:43;2.25;;;2.05;;
16522;SDS011;19889;52.546;13.348;2023-07-28T10:38:30;2.13;;;1.95;;
16522;SDS011;19889;52.546;13.348;2023-07-28T10:41:06;3.08;;;2.78;;
16522;SDS011;19889;52.546;13.348;2023-07-28T10:43:36;1.85;;;1.75;;
16522;SDS011;19889;52.546;13.348;2023-07-28T10:46:04;2.30;;;2.10;;
16522;SDS011;19889;52.546;13.348;2023-07-28T10:48:41;1.90;;;1.80;;
16522;SDS011;19889;52.546;13.348;2023-07-28T10:51:10;1.73;;;1.63;;
16522;SDS011;19889;52.546;13.348;2023-07-28T10:53:37;3.05;;;2.13;;
16522;SDS011;19889;52.546;13.348;2023-07-28T10:56:05;2.78;;;1.90;;
16522;SDS011;19889;52.546;13.348;2023-07-28T10:58:36;3.10;;;2.33;;
16522;SDS011;19889;52.546;13.348;2023-07-28T11:01:04;3.25;;;1.60;;
16522;SDS011;19889;52.546;13.348;2023-07-28T11:03:32;2.08;;;1.67;;
16522;SDS011;19889;52.546;13.348;2023-07-28T11:05:59;1.50;;;1.40;;
16522;SDS011;19889;52.546;13.348;2023-07-28T11:08:26;1.67;;;1.33;;
16522;SDS011;19889;52.546;13.348;2023-07-28T11:10:54;1.20;;;1.10;;
16522;SDS011;19889;52.546;13.348;2023-07-28T11:13:21;1.45;;;1.35;;
16522;SDS011;19889;52.546;13.348;2023-07-28T11:15:57;1.73;;;1.58;;
16522;SDS011;19889;52.546;13.348;2023-07-28T11:18:25;4.25;;;3.85;;
16522;SDS011;19889;52.546;13.348;2023-07-28T11:20:52;4.82;;;2.58;;
16522;SDS011;19889;52.546;13.348;2023-07-28T11:23:19;3.55;;;2.15;;
16522;SDS011;19889;52.546;13.348;2023-07-28T11:25:47;2.05;;;1.90;;
16522;SDS011;19889;52.546;13.348;2023-07-28T11:28:14;1.60;;;1.50;;
16522;SDS011;19889;52.546;13.348;2023-07-28T11:30:41;1.90;;;1.50;;
16522;SDS011;19889;52.546;13.348;2023-07-28T11:33:11;2.60;;;1.70;;
16522;SDS011;19889;52.546;13.348;2023-07-28T11:35:39;3.58;;;1.55;;
16522;SDS011;19889;52.546;13.348;2023-07-28T11:38:10;1.80;;;1.70;;
16522;SDS011;19889;52.546;13.348;2023-07-28T11:40:39;2.72;;;1.63;;
16522;SDS011;19889;52.546;13.348;2023-07-28T11:43:07;6.10;;;3.17;;
16522;SDS011;19889;52.546;13.348;2023-07-28T11:45:35;2.72;;;1.85;;
16522;SDS011;19889;52.546;13.348;2023-07-28T11:48:03;1.92;;;1.73;;
16522;SDS011;19889;52.546;13.348;2023-07-28T11:50:35;6.82;;;1.98;;
16522;SDS011;19889;52.546;13.348;2023-07-28T11:53:04;1.63;;;1.52;;
16522;SDS011;19889;52.546;13.348;2023-07-28T11:55:33;1.67;;;1.58;;
16522;SDS011;19889;52.546;13.348;2023-07-28T11:58:02;1.45;;;1.35;;
16522;SDS011;19889;52.546;13.348;2023-07-28T12:00:30;2.33;;;1.80;;
16522;SDS011;19889;52.546;13.348;2023-07-28T12:03:03;1.70;;;1.60;;
16522;SDS011;19889;52.546;13.348;2023-07-28T12:05:36;2.22;;;1.55;;
16522;SDS011;19889;52.546;13.348;2023-07-28T12:08:05;1.65;;;1.35;;
16522;SDS011;19889;52.546;13.348;2023-07-28T12:10:33;1.40;;;1.33;;
16522;SDS011;19889;52.546;13.348;2023-07-28T12:13:04;1.80;;;1.40;;
16522;SDS011;19889;52.546;13.348;2023-07-28T12:15:32;2.72;;;2.53;;
16522;SDS011;19889;52.546;13.348;2023-07-28T12:18:07;1.83;;;1.67;;
16522;SDS011;19889;52.546;13.348;2023-07-28T12:20:38;1.60;;;1.50;;
16522;SDS011;19889;52.546;13.348;2023-07-28T12:23:07;1.70;;;1.60;;
16522;SDS011;19889;52.546;13.348;2023-07-28T12:25:35;1.52;;;1.42;;
16522;SDS011;19889;52.546;13.348;2023-07-28T12:28:03;1.70;;;1.45;;
16522;SDS011;19889;52.546;13.348;2023-07-28T12:30:30;1.85;;;1.70;;
16522;SDS011;19889;52.546;13.348;2023-07-28T12:32:57;1.70;;;1.60;;
16522;SDS011;19889;52.546;13.348;2023-07-28T12:35:26;2.80;;;1.77;;
16522;SDS011;19889;52.546;13.348;2023-07-28T12:37:58;2.65;;;1.65;;
16522;SDS011;19889;52.546;13.348;2023-07-28T12:40:26;1.60;;;1.40;;
16522;SDS011;19889;52.546;13.348;2023-07-28T12:42:54;1.77;;;1.33;;
16522;SDS011;19889;52.546;13.348;2023-07-28T12:45:22;1.70;;;1.60;;
16522;SDS011;19889;52.546;13.348;2023-07-28T12:47:51;1.50;;;1.40;;
16522;SDS011;19889;52.546;13.348;2023-07-28T12:50:19;1.88;;;1.77;;
16522;SDS011;19889;52.546;13.348;2023-07-28T12:52:47;2.13;;;1.95;;
16522;SDS011;19889;52.546;13.348;2023-07-28T12:55:16;2.45;;;1.55;;
16522;SDS011;19889;52.546;13.348;2023-07-28T12:57:43;1.50;;;1.40;;
16522;SDS011;19889;52.546;13.348;2023-07-28T13:00:14;1.88;;;1.77;;
16522;SDS011;19889;52.546;13.348;2023-07-28T13:02:41;2.22;;;1.90;;
16522;SDS011;19889;52.546;13.348;2023-07-28T13:05:09;1.70;;;1.60;;
16522;SDS011;19889;52.546;13.348;2023-07-28T13:07:38;2.13;;;1.88;;
16522;SDS011;19889;52.546;13.348;2023-07-28T13:10:07;1.42;;;1.33;;
16522;SDS011;19889;52.546;13.348;2023-07-28T13:12:37;3.15;;;1.67;;
16522;SDS011;19889;52.546;13.348;2023-07-28T13:15:05;1.80;;;1.70;;
16522;SDS011;19889;52.546;13.348;2023-07-28T13:17:33;2.00;;;1.90;;
16522;SDS011;19889;52.546;13.348;2023-07-28T13:20:00;2.22;;;2.03;;
16522;SDS011;19889;52.546;13.348;2023-07-28T13:22:28;2.38;;;2.03;;
16522;SDS011;19889;52.546;13.348;2023-07-28T13:24:55;1.80;;;1.70;;
16522;SDS011;19889;52.546;13.348;2023-07-28T13:27:22;1.85;;;1.75;;
16522;SDS011;19889;52.546;13.348;2023-07-28T13:29:50;1.88;;;1.50;;
16522;SDS011;19889;52.546;13.348;2023-07-28T13:32:18;1.85;;;1.75;;
16522;SDS011;19889;52.546;13.348;2023-07-28T13:34:49;2.17;;;2.00;;
16522;SDS011;19889;52.546;13.348;2023-07-28T13:37:17;1.88;;;1.77;;
16522;SDS011;19889;52.546;13.348;2023-07-28T13:39:45;4.03;;;2.60;;
16522;SDS011;19889;52.546;13.348;2023-07-28T13:42:12;2.03;;;1.80;;
16522;SDS011;19889;52.546;13.348;2023-07-28T13:44:41;3.97;;;2.72;;
16522;SDS011;19889;52.546;13.348;2023-07-28T13:47:10;6.20;;;5.60;;
16522;SDS011;19889;52.546;13.348;2023-07-28T13:49:37;3.25;;;2.95;;
16522;SDS011;19889;52.546;13.348;2023-07-28T13:52:05;3.97;;;2.58;;
16522;SDS011;19889;52.546;13.348;2023-07-28T13:54:32;2.35;;;2.15;;
16522;SDS011;19889;52.546;13.348;2023-07-28T13:57:00;2.35;;;2.15;;
16522;SDS011;19889;52.546;13.348;2023-07-28T13:59:27;2.95;;;2.65;;
16522;SDS011;19889;52.546;13.348;2023-07-28T14:01:54;2.50;;;2.22;;
16522;SDS011;19889;52.546;13.348;2023-07-28T14:04:24;5.13;;;4.63;;
16522;SDS011;19889;52.546;13.348;2023-07-28T14:06:52;4.38;;;3.97;;
16522;SDS011;19889;52.546;13.348;2023-07-28T14:09:19;2.63;;;2.42;;
16522;SDS011;19889;52.546;13.348;2023-07-28T14:11:46;3.38;;;2.40;;
16522;SDS011;19889;52.546;13.348;2023-07-28T14:14:13;3.67;;;2.15;;
16522;SDS011;19889;52.546;13.348;2023-07-28T14:16:40;2.50;;;2.30;;
16522;SDS011;19889;52.546;13.348;2023-07-28T14:19:08;3.00;;;2.00;;
16522;SDS011;19889;52.546;13.348;2023-07-28T14:21:36;2.42;;;2.22;;
16522;SDS011;19889;52.546;13.348;2023-07-28T14:24:04;5.10;;;2.20;;
16522;SDS011;19889;52.546;13.348;2023-07-28T14:26:31;5.20;;;2.92;;
16522;SDS011;19889;52.546;13.348;2023-07-28T14:28:58;2.20;;;1.90;;
16522;SDS011;19889;52.546;13.348;2023-07-28T14:31:26;5.28;;;2.50;;
16522;SDS011;19889;52.546;13.348;2023-07-28T14:34:00;2.90;;;2.35;;
16522;SDS011;19889;52.546;13.348;2023-07-28T14:36:27;3.70;;;2.38;;
16522;SDS011;19889;52.546;13.348;2023-07-28T14:38:57;2.15;;;1.98;;
16522;SDS011;19889;52.546;13.348;2023-07-28T14:41:24;2.03;;;1.90;;
16522;SDS011;19889;52.546;13.348;2023-07-28T14:44:27;2.03;;;1.77;;
16522;SDS011;19889;52.546;13.348;2023-07-28T14:46:55;2.20;;;2.00;;